KPSM

Portsmouth International at Pease Airport

Portsmouth, New Hampshire, USA
METAR KPSM 141156Z 00000KT 10SM FEW025 SCT050 M06/M08 A3050 RMK AO2A SLP332 T10591076 11023 21072 55002
Observed Flight Rules
Dec-14 @ 11:56 UTC (44 minutes ago) Visual Flight Rules
Visibility Clouds
10 miles
  • Few at 2,500' AGL
  • Scattered at 5,000' AGL
Temperatures Readings
Current -6°C / 21°F
Dewpoint -8°C / 18°F
Humidity 86%
Altimeter 30.5" Hg
Pressure 1033.2 hPa
Elevation 31
METAR KPSM 141156Z 00000KT 10SM FEW025 SCT050 M06/M08 A3050 RMK AO2A SLP332 T10591076 11023 21072 55002
Observed Flight Rules
Dec-14 @ 11:56 UTC
(44 minutes ago)
VFR
Clouds
  • Few at 2,500' AGL
  • Scattered at 5,000' AGL
Temperature Dewpoint
-6°C / 21°F -8°C / 18°F
Humidity Altimeter Pressure
86% 30.5" Hg 1033.2 hPa